createdAt,value
2024-03-25T00:04:00.283Z,6.10
2024-03-25T00:09:02.445Z,5.50
2024-03-25T00:14:07.517Z,4.80
2024-03-25T00:19:09.604Z,4.70
2024-03-25T00:24:11.696Z,5.10
2024-03-25T00:29:13.733Z,5.60
2024-03-25T00:34:15.955Z,5.50
2024-03-25T00:39:18.668Z,4.70
2024-03-25T00:44:20.836Z,5.40
2024-03-25T00:49:23.019Z,5.00
2024-03-25T00:54:25.104Z,5.90
2024-03-25T00:59:27.129Z,5.60
2024-03-25T01:04:29.768Z,5.30
2024-03-25T01:09:32.482Z,5.10
2024-03-25T01:14:34.419Z,5.10
2024-03-25T01:19:36.328Z,4.90
2024-03-25T01:24:38.320Z,4.40
2024-03-25T01:29:40.503Z,5.10
2024-03-25T01:34:42.589Z,5.00
2024-03-25T01:39:44.672Z,4.30
2024-03-25T01:44:47.779Z,4.60
2024-03-25T01:49:54.329Z,5.10
2024-03-25T01:54:57.169Z,5.60
2024-03-25T01:59:59.636Z,5.60
2024-03-25T02:05:02.972Z,4.50
2024-03-25T02:10:05.350Z,5.40
2024-03-25T02:15:08.670Z,5.20
2024-03-25T02:20:12.610Z,5.30
2024-03-25T02:25:15.096Z,5.50
2024-03-25T02:30:17.275Z,4.80
2024-03-25T02:35:19.191Z,6.10
2024-03-25T02:40:23.402Z,5.30
2024-03-25T02:50:27.397Z,5.60
2024-03-25T02:55:29.436Z,6.00
2024-03-25T03:00:31.424Z,5.10
2024-03-25T03:05:33.630Z,4.90
2024-03-25T03:10:35.469Z,4.90
2024-03-25T03:15:37.359Z,6.20
2024-03-25T03:20:39.444Z,5.60
2024-03-25T03:25:41.938Z,5.20
2024-03-25T03:30:44.738Z,5.80
2024-03-25T03:35:46.611Z,6.20
2024-03-25T03:41:02.326Z,5.90
2024-03-25T03:46:04.812Z,5.80
2024-03-25T03:51:07.610Z,6.60
2024-03-25T03:56:10.303Z,6.60
2024-03-25T04:01:16.894Z,5.80
2024-03-25T04:06:19.218Z,6.00
2024-03-25T04:11:21.375Z,6.40
2024-03-25T04:16:23.578Z,6.50
2024-03-25T04:21:25.475Z,7.00
2024-03-25T04:26:27.372Z,6.30
2024-03-25T04:31:29.292Z,7.10
2024-03-25T04:36:31.736Z,6.80
2024-03-25T04:41:33.764Z,7.20
2024-03-25T04:46:35.792Z,9.70
2024-03-25T04:51:38.164Z,7.90
2024-03-25T04:56:40.010Z,8.90
2024-03-25T05:01:41.953Z,8.50
2024-03-25T05:06:43.813Z,8.80
2024-03-25T05:11:46.187Z,10.10
2024-03-25T05:16:49.678Z,7.80
2024-03-25T05:21:51.864Z,8.40
2024-03-25T05:26:53.756Z,8.80
2024-03-25T05:32:02.858Z,9.90
2024-03-25T05:37:05.845Z,9.10
2024-03-25T05:42:08.581Z,9.00
2024-03-25T05:47:10.561Z,8.20
2024-03-25T05:52:12.425Z,8.30
2024-03-25T05:57:14.379Z,8.60
2024-03-25T06:02:16.360Z,7.90
2024-03-25T06:07:18.619Z,8.50
2024-03-25T06:12:20.654Z,9.30
2024-03-25T06:17:22.765Z,8.50
2024-03-25T06:22:24.710Z,18.00
2024-03-25T06:27:26.806Z,11.60
2024-03-25T06:32:47.744Z,8.60
2024-03-25T06:37:49.708Z,11.20
2024-03-25T06:42:51.698Z,14.20
2024-03-25T06:47:53.784Z,15.40
2024-03-25T06:52:56.026Z,8.70
2024-03-25T06:57:58.151Z,9.50
2024-03-25T07:03:01.000Z,8.80
2024-03-25T07:08:03.447Z,9.30
2024-03-25T07:13:06.447Z,8.50
2024-03-25T07:18:08.309Z,9.40
2024-03-25T07:23:10.760Z,10.00
2024-03-25T07:28:12.900Z,9.10
2024-03-25T07:33:14.689Z,9.20
2024-03-25T07:38:16.777Z,9.30
2024-03-25T07:43:18.846Z,10.00
2024-03-25T07:48:20.845Z,9.00
2024-03-25T07:53:22.688Z,9.80
2024-03-25T07:58:25.387Z,9.70
2024-03-25T08:03:27.675Z,7.80
2024-03-25T08:08:30.291Z,10.00
2024-03-25T08:13:32.371Z,9.40
2024-03-25T08:18:34.843Z,8.20
2024-03-25T08:23:36.962Z,12.10
2024-03-25T08:28:39.170Z,8.80
2024-03-25T08:33:41.225Z,9.20
2024-03-25T08:38:43.330Z,7.80
2024-03-25T08:43:45.277Z,6.70
2024-03-25T08:48:47.353Z,8.00
2024-03-25T08:53:50.719Z,7.60
2024-03-25T08:58:55.424Z,7.50
2024-03-25T09:03:57.750Z,8.80
2024-03-25T09:09:18.500Z,8.70
2024-03-25T09:14:20.465Z,9.40
2024-03-25T09:19:23.458Z,9.40
2024-03-25T09:24:25.543Z,9.60
2024-03-25T09:29:27.538Z,7.90
2024-03-25T09:34:29.601Z,7.70
2024-03-25T09:39:32.675Z,7.50
2024-03-25T09:44:35.386Z,8.40
2024-03-25T09:49:37.858Z,8.20
2024-03-25T09:54:42.859Z,7.20
2024-03-25T09:59:44.875Z,7.80
2024-03-25T10:04:49.884Z,7.70
2024-03-25T10:09:52.429Z,7.30
2024-03-25T10:14:54.576Z,5.70
2024-03-25T10:19:56.579Z,4.00
2024-03-25T10:24:59.230Z,3.90
2024-03-25T10:30:02.672Z,3.40
2024-03-25T10:35:05.747Z,2.60
2024-03-25T10:40:12.895Z,3.50
2024-03-25T10:45:14.829Z,4.30
2024-03-25T10:50:18.965Z,3.90
2024-03-25T10:55:22.881Z,4.60
2024-03-25T11:00:25.021Z,3.90
2024-03-25T11:05:28.009Z,4.10
2024-03-25T11:10:30.611Z,4.00
2024-03-25T11:15:44.228Z,3.90
2024-03-25T11:20:46.322Z,4.80
2024-03-25T11:25:55.982Z,4.40
2024-03-25T11:30:57.847Z,4.70
2024-03-25T11:36:00.690Z,4.80
2024-03-25T11:41:03.009Z,4.90
2024-03-25T11:46:06.463Z,5.20
2024-03-25T11:51:13.238Z,4.70
2024-03-25T11:56:15.495Z,4.10
2024-03-25T12:01:17.519Z,4.70
2024-03-25T12:06:19.702Z,5.00
2024-03-25T12:11:21.947Z,4.90
2024-03-25T12:16:24.903Z,3.10
2024-03-25T12:21:26.985Z,3.30
2024-03-25T12:26:32.443Z,3.10
2024-03-25T12:31:34.938Z,3.10
2024-03-25T12:36:36.971Z,2.00
2024-03-25T12:41:39.091Z,2.10
2024-03-25T12:46:41.175Z,2.40
2024-03-25T12:51:43.364Z,2.80
2024-03-25T12:56:45.369Z,3.10
2024-03-25T13:01:47.427Z,2.80
2024-03-25T13:06:49.567Z,2.40
2024-03-25T13:11:51.667Z,2.40
2024-03-25T13:16:53.853Z,2.20
2024-03-25T13:21:59.146Z,2.30
2024-03-25T13:27:01.437Z,2.00
2024-03-25T13:32:05.941Z,2.90
2024-03-25T13:37:08.350Z,2.40
2024-03-25T13:42:10.250Z,2.40
2024-03-25T13:47:12.365Z,2.50
2024-03-25T13:52:14.379Z,2.30
2024-03-25T13:57:16.818Z,2.00
2024-03-25T14:02:19.058Z,2.00
2024-03-25T14:07:21.134Z,2.40
2024-03-25T14:12:24.505Z,1.80
2024-03-25T14:17:26.838Z,1.60
2024-03-25T14:22:28.899Z,1.40
2024-03-25T14:27:30.800Z,1.20
2024-03-25T14:32:32.708Z,1.70
2024-03-25T14:37:34.545Z,1.70
2024-03-25T14:42:37.593Z,1.70
2024-03-25T14:47:39.541Z,2.00
2024-03-25T14:52:41.378Z,1.80
2024-03-25T15:40:52.707Z,3.80
2024-03-25T15:46:02.830Z,3.10
2024-03-25T15:51:06.707Z,3.80
2024-03-25T15:56:10.123Z,2.90
2024-03-25T16:01:13.019Z,3.30
2024-03-25T16:06:16.072Z,3.20
2024-03-25T16:11:21.517Z,2.70
2024-03-25T16:16:24.568Z,3.10
2024-03-25T16:21:28.471Z,3.90
2024-03-25T16:26:31.488Z,4.90
2024-03-25T16:31:34.464Z,4.50
2024-03-25T16:36:37.523Z,4.70
2024-03-25T16:41:40.680Z,8.00
2024-03-25T16:46:44.203Z,6.50
2024-03-25T16:51:47.136Z,4.70
2024-03-25T16:56:50.047Z,4.90
2024-03-25T17:01:56.432Z,4.50
2024-03-25T17:06:59.520Z,4.20
2024-03-25T17:12:02.621Z,5.60
2024-03-25T17:17:05.977Z,4.50
2024-03-25T17:22:08.835Z,6.00
2024-03-25T17:27:12.086Z,6.50
2024-03-25T17:32:15.058Z,5.10
2024-03-25T17:37:18.150Z,5.50
2024-03-25T17:42:21.286Z,6.10
2024-03-25T17:47:24.254Z,12.50
2024-03-25T17:52:27.472Z,19.40
2024-03-25T17:57:31.363Z,15.00
2024-03-25T18:02:34.823Z,25.50
2024-03-25T18:07:39.087Z,15.60
2024-03-25T18:17:44.836Z,10.50
2024-03-25T18:22:47.954Z,12.90
2024-03-25T18:27:50.911Z,14.20
2024-03-25T18:32:53.781Z,16.90
2024-03-25T18:37:56.797Z,16.50
2024-03-25T18:42:59.700Z,14.20
2024-03-25T18:48:03.387Z,13.80
2024-03-25T18:53:06.361Z,20.90
2024-03-25T18:58:10.773Z,20.50
2024-03-25T19:03:13.828Z,18.40
2024-03-25T19:08:16.776Z,15.00
2024-03-25T19:13:19.604Z,16.00
2024-03-25T19:18:22.731Z,18.70
2024-03-25T19:23:25.871Z,11.70
2024-03-25T19:28:29.133Z,11.60
2024-03-25T19:33:32.025Z,11.40
2024-03-25T19:38:35.327Z,9.90
2024-03-25T19:43:39.284Z,7.20
2024-03-25T19:48:42.567Z,8.60
2024-03-25T19:53:45.439Z,8.00
2024-03-25T19:58:48.357Z,9.00
2024-03-25T20:03:52.780Z,9.20
2024-03-25T20:08:55.724Z,8.40
2024-03-25T20:13:58.614Z,7.80
2024-03-25T20:19:01.897Z,8.80
2024-03-25T20:24:05.524Z,8.20
2024-03-25T20:29:08.452Z,9.60
2024-03-25T20:34:11.461Z,9.70
2024-03-25T20:39:14.295Z,10.20
2024-03-25T20:44:17.703Z,10.90
2024-03-25T20:49:20.701Z,8.00
2024-03-25T20:54:25.715Z,11.40
2024-03-25T20:59:39.360Z,11.20
2024-03-25T21:04:42.929Z,9.80
2024-03-25T21:09:46.056Z,7.90
2024-03-25T21:14:48.914Z,7.20
2024-03-25T21:19:52.475Z,7.90
2024-03-25T21:24:55.385Z,6.20
2024-03-25T21:29:58.667Z,6.40
2024-03-25T21:35:01.620Z,8.40
2024-03-25T21:40:06.049Z,12.80
2024-03-25T21:45:09.731Z,9.90
2024-03-25T21:50:12.678Z,10.50
2024-03-25T21:55:15.700Z,14.40
2024-03-25T22:00:18.710Z,29.60
2024-03-25T22:05:22.775Z,20.00
2024-03-25T22:15:34.381Z,19.30
2024-03-25T22:20:40.382Z,19.80
2024-03-25T22:25:43.255Z,20.20
2024-03-25T22:30:46.194Z,23.80
2024-03-25T22:36:00.731Z,21.90
2024-03-25T22:46:06.562Z,18.40
2024-03-25T22:51:09.620Z,18.90
2024-03-25T22:56:13.921Z,21.70
2024-03-25T23:06:19.951Z,21.30
2024-03-25T23:11:22.912Z,23.60
2024-03-25T23:16:29.149Z,23.00
2024-03-25T23:21:33.691Z,21.70
2024-03-25T23:26:36.683Z,21.20
2024-03-25T23:31:39.519Z,21.30
2024-03-25T23:36:42.407Z,23.10
2024-03-25T23:41:45.203Z,23.90
2024-03-25T23:46:48.103Z,24.80
2024-03-25T23:51:51.053Z,22.20
2024-03-25T23:56:53.862Z,22.40
